Time;durP1;ratioP1;P1;durP2;ratioP2;P2;SDS_P1;SDS_P2;PMS_P1;PMS_P2;Temp;Humidity;BMP_temperature;BMP_pressure;BME280_temperature;BME280_humidity;BME280_pressure;Samples;Min_cycle;Max_cycle;Signal;HPM_P1;HPM_P2
2024/01/26 00:00:53;;;;;;;;;9.33;9.33;;;;;17.12;100.00;102097.81;2096118;28;47107;-66
2024/01/26 00:01:53;;;;;;;;;10.00;10.00;;;;;17.09;100.00;102101.47;2095161;28;46917;-68
2024/01/26 00:02:54;;;;;;;;;10.67;9.67;;;;;17.02;100.00;102095.41;2095417;28;45736;-67
2024/01/26 00:03:54;;;;;;;;;7.00;7.00;;;;;16.97;100.00;102089.25;2095254;28;46350;-65
2024/01/26 00:04:54;;;;;;;;;8.33;8.33;;;;;16.96;100.00;102083.94;2095921;28;45961;-66
2024/01/26 00:05:55;;;;;;;;;8.00;7.67;;;;;16.92;100.00;102083.16;2087110;28;45960;-66
2024/01/26 00:06:55;;;;;;;;;9.33;9.33;;;;;16.95;100.00;102091.09;2078194;28;47027;-66
2024/01/26 00:07:56;;;;;;;;;9.00;9.00;;;;;16.88;100.00;102091.28;2093209;28;46997;-65
2024/01/26 00:08:56;;;;;;;;;8.67;8.00;;;;;16.84;100.00;102095.88;2095432;28;46497;-65
2024/01/26 00:09:57;;;;;;;;;7.33;6.67;;;;;16.80;100.00;102094.19;2093963;28;46545;-66
2024/01/26 00:10:57;;;;;;;;;10.00;9.00;;;;;16.75;100.00;102096.09;2094389;28;46789;-66
2024/01/26 00:11:58;;;;;;;;;11.00;10.00;;;;;16.72;100.00;102093.50;2095301;28;45696;-66
2024/01/26 00:12:58;;;;;;;;;10.00;10.00;;;;;17.08;100.00;102088.09;2094758;28;46225;-66
2024/01/26 00:13:58;;;;;;;;;9.33;8.00;;;;;16.77;100.00;102081.75;2095882;28;46339;-66
2024/01/26 00:14:59;;;;;;;;;9.00;9.00;;;;;16.77;100.00;102095.16;2095913;28;46164;-66
2024/01/26 00:15:59;;;;;;;;;9.00;9.00;;;;;16.76;100.00;102097.84;2095120;28;46258;-66
2024/01/26 00:17:00;;;;;;;;;9.00;8.00;;;;;16.81;100.00;102084.34;2102727;28;46071;-67
2024/01/26 00:18:00;;;;;;;;;10.67;8.67;;;;;16.81;100.00;102092.38;2102741;28;46253;-66
2024/01/26 00:19:00;;;;;;;;;8.00;8.00;;;;;17.04;100.00;102096.22;2094055;28;46266;-66
2024/01/26 00:20:01;;;;;;;;;11.00;9.67;;;;;17.17;100.00;102093.22;2095928;28;46657;-66
2024/01/26 00:21:01;;;;;;;;;7.33;7.00;;;;;17.20;100.00;102099.38;2094936;28;46863;-67
2024/01/26 00:22:02;;;;;;;;;9.67;9.67;;;;;17.21;100.00;102105.63;2095549;28;46410;-65
2024/01/26 00:23:02;;;;;;;;;12.00;9.00;;;;;17.16;100.00;102099.50;2096047;28;45642;-67
2024/01/26 00:24:04;;;;;;;;;8.25;8.25;;;;;17.13;100.00;102107.63;2103061;27;46510;-66
2024/01/26 00:25:05;;;;;;;;;10.25;10.00;;;;;17.16;100.00;102103.06;2103084;28;45417;-66
2024/01/26 00:26:05;;;;;;;;;10.33;9.67;;;;;17.00;100.00;102097.22;2094827;28;46827;-66
2024/01/26 00:27:06;;;;;;;;;12.33;11.00;;;;;16.98;100.00;102095.50;2095637;28;46463;-66
2024/01/26 00:28:06;;;;;;;;;8.33;8.33;;;;;16.93;100.00;102092.94;2095767;28;46676;-65
2024/01/26 00:29:06;;;;;;;;;7.33;7.33;;;;;16.91;100.00;102091.25;2095514;28;46415;-67
2024/01/26 00:30:07;;;;;;;;;10.67;9.33;;;;;16.90;100.00;102090.34;2095663;28;46133;-66
2024/01/26 00:31:08;;;;;;;;;9.00;9.00;;;;;16.87;100.00;102085.06;2094064;28;46219;-66
2024/01/26 00:32:09;;;;;;;;;8.00;8.00;;;;;16.83;100.00;102085.19;2086274;28;45584;-66
2024/01/26 00:33:09;;;;;;;;;7.00;7.00;;;;;17.09;100.00;102074.63;2086754;28;46346;-67
2024/01/26 00:34:09;;;;;;;;;7.00;7.00;;;;;17.04;100.00;102069.41;2094817;28;46168;-66
2024/01/26 00:35:10;;;;;;;;;9.33;9.33;;;;;17.05;100.00;102067.59;2095632;28;46362;-67
2024/01/26 00:36:12;;;;;;;;;9.67;9.67;;;;;17.05;100.00;102067.59;2094253;28;46021;-67
2024/01/26 00:37:13;;;;;;;;;9.25;9.25;;;;;16.98;100.00;102066.00;2095109;28;45693;-68
2024/01/26 00:38:14;;;;;;;;;10.33;8.67;;;;;16.96;100.00;102063.38;2094393;28;46702;-66
2024/01/26 00:39:14;;;;;;;;;7.50;7.50;;;;;17.13;100.00;102054.84;2095896;28;46935;-66
2024/01/26 00:40:15;;;;;;;;;9.33;9.33;;;;;17.07;100.00;102060.41;2094661;28;45904;-66
2024/01/26 00:41:16;;;;;;;;;9.00;9.00;;;;;16.94;100.00;102054.50;2095852;28;46930;-68
2024/01/26 00:42:16;;;;;;;;;12.00;9.00;;;;;16.89;100.00;102056.38;2095237;28;46125;-66
2024/01/26 00:43:19;;;;;;;;;7.00;7.00;;;;;16.90;100.00;102062.66;2093475;28;47398;-67
2024/01/26 00:44:19;;;;;;;;;7.50;7.50;;;;;16.89;100.00;102056.38;2095246;28;46327;-67
2024/01/26 00:45:19;;;;;;;;;10.67;9.67;;;;;16.88;100.00;102064.47;2095231;28;46914;-67
2024/01/26 00:46:21;;;;;;;;;9.00;9.00;;;;;16.84;100.00;102062.81;2094316;28;46692;-65
2024/01/26 00:47:21;;;;;;;;;11.00;10.00;;;;;16.85;100.00;102065.44;2094770;28;46613;-66
2024/01/26 00:48:22;;;;;;;;;8.67;7.00;;;;;16.94;100.00;102069.69;2094859;28;46839;-66
2024/01/26 00:49:22;;;;;;;;;8.33;8.33;;;;;17.03;100.00;102075.69;2095533;28;46200;-66
2024/01/26 00:50:22;;;;;;;;;9.00;9.00;;;;;17.01;100.00;102074.84;2095347;28;46210;-66
2024/01/26 00:51:23;;;;;;;;;10.33;10.00;;;;;17.02;100.00;102079.31;2096336;28;46544;-66
2024/01/26 00:52:23;;;;;;;;;9.00;8.67;;;;;17.02;100.00;102076.63;2095692;28;45909;-66
2024/01/26 00:53:23;;;;;;;;;8.33;8.33;;;;;16.85;100.00;102078.84;2095696;28;46573;-67
2024/01/26 00:54:24;;;;;;;;;9.67;8.67;;;;;16.86;100.00;102075.25;2095614;28;46514;-67
2024/01/26 00:55:29;;;;;;;;;10.67;10.33;;;;;16.87;100.00;102074.31;2094520;28;46488;-66
2024/01/26 00:56:29;;;;;;;;;10.75;9.25;;;;;16.88;100.00;102077.88;2095566;28;45561;-67
2024/01/26 00:57:29;;;;;;;;;9.33;9.33;;;;;16.83;100.00;102069.09;2095475;28;46316;-65
2024/01/26 00:58:30;;;;;;;;;12.33;11.00;;;;;16.87;100.00;102065.41;2095167;28;46427;-65
2024/01/26 00:59:30;;;;;;;;;13.00;12.00;;;;;16.84;100.00;102061.00;2095475;28;46276;-67
2024/01/26 01:00:31;;;;;;;;;12.67;11.00;;;;;16.86;100.00;102055.59;2094868;28;46926;-66
2024/01/26 01:01:31;;;;;;;;;10.00;10.00;;;;;16.86;100.00;102058.28;2094660;28;45764;-67
2024/01/26 01:02:31;;;;;;;;;9.00;9.00;;;;;16.86;100.00;102055.59;2095049;28;46602;-66
2024/01/26 01:03:32;;;;;;;;;9.00;8.33;;;;;16.86;100.00;102052.91;2095328;28;46789;-66
2024/01/26 01:04:33;;;;;;;;;9.67;9.67;;;;;16.83;100.00;102053.88;2095401;28;47123;-66
2024/01/26 01:05:33;;;;;;;;;10.00;10.00;;;;;16.83;100.00;102061.94;2095694;28;45911;-65
2024/01/26 01:06:33;;;;;;;;;8.00;8.00;;;;;16.75;100.00;102054.06;2095467;28;46459;-65
2024/01/26 01:07:34;;;;;;;;;8.33;8.33;;;;;16.75;100.00;102062.13;2095386;28;45363;-67
2024/01/26 01:08:34;;;;;;;;;10.67;9.00;;;;;16.74;100.00;102057.69;2095065;28;46157;-66
2024/01/26 01:09:34;;;;;;;;;8.33;8.33;;;;;16.88;100.00;102054.63;2095383;28;46570;-66
2024/01/26 01:10:36;;;;;;;;;10.67;10.67;;;;;16.93;100.00;102041.13;2095546;28;46798;-66
2024/01/26 01:11:36;;;;;;;;;10.00;9.00;;;;;16.96;100.00;102049.06;2094644;28;46487;-67
2024/01/26 01:12:42;;;;;;;;;12.00;9.00;;;;;16.97;100.00;102048.16;2095761;28;46697;-67
2024/01/26 01:13:43;;;;;;;;;10.00;8.50;;;;;16.96;100.00;102039.22;2094464;28;45811;-66
2024/01/26 01:14:44;;;;;;;;;11.00;10.00;;;;;16.95;100.00;102040.16;2095553;28;46340;-66
2024/01/26 01:15:44;;;;;;;;;10.67;10.67;;;;;16.97;100.00;102030.25;2094219;28;46622;-66
2024/01/26 01:16:45;;;;;;;;;9.33;9.33;;;;;16.98;100.00;102029.34;2095297;28;47053;-67
2024/01/26 01:17:46;;;;;;;;;10.00;9.25;;;;;17.00;100.00;102031.97;2094934;28;45757;-66
2024/01/26 01:18:46;;;;;;;;;10.33;10.33;;;;;16.98;100.00;102037.38;2092445;28;45902;-66
2024/01/26 01:19:46;;;;;;;;;7.67;7.67;;;;;16.98;100.00;102036.50;2094708;28;46385;-66
2024/01/26 01:20:47;;;;;;;;;12.67;11.33;;;;;16.94;100.00;102034.84;2095532;28;46862;-66
2024/01/26 01:21:47;;;;;;;;;11.67;11.67;;;;;16.90;100.00;102031.38;2095243;28;46313;-66
2024/01/26 01:22:48;;;;;;;;;11.33;11.00;;;;;16.85;100.00;102029.72;2111040;27;46360;-66
2024/01/26 01:23:48;;;;;;;;;10.00;10.00;;;;;16.88;100.00;102037.66;2111250;27;45176;-66
2024/01/26 01:24:48;;;;;;;;;13.33;11.67;;;;;16.79;100.00;102036.13;2095375;28;46582;-67
2024/01/26 01:25:49;;;;;;;;;9.67;9.67;;;;;16.84;100.00;102041.34;2095226;28;46311;-66
2024/01/26 01:26:50;;;;;;;;;10.00;9.25;;;;;16.89;100.00;102050.16;2095594;28;46410;-66
2024/01/26 01:27:50;;;;;;;;;11.67;10.33;;;;;16.88;100.00;102041.22;2094843;28;46586;-66
2024/01/26 01:28:51;;;;;;;;;12.67;10.67;;;;;16.89;100.00;102042.97;2094221;28;46557;-66
2024/01/26 01:29:51;;;;;;;;;8.67;8.00;;;;;16.90;100.00;102035.84;2095230;28;46587;-66
2024/01/26 01:30:51;;;;;;;;;9.33;9.33;;;;;16.88;100.00;102029.63;2095436;28;46372;-67
2024/01/26 01:31:52;;;;;;;;;11.33;9.67;;;;;16.92;100.00;102026.84;2094912;28;46278;-65
2024/01/26 01:32:52;;;;;;;;;11.67;10.67;;;;;16.95;100.00;102031.22;2095612;28;46678;-67
2024/01/26 01:33:52;;;;;;;;;10.67;10.67;;;;;16.95;100.00;102036.59;2095038;28;47287;-66
2024/01/26 01:34:53;;;;;;;;;10.00;9.33;;;;;16.92;100.00;102036.69;2095130;28;46484;-65
2024/01/26 01:35:53;;;;;;;;;11.00;10.33;;;;;16.93;100.00;102047.38;2091662;28;46434;-67
2024/01/26 01:36:53;;;;;;;;;10.33;10.33;;;;;16.94;100.00;102046.44;2095315;28;46182;-66
2024/01/26 01:37:54;;;;;;;;;14.67;12.33;;;;;16.94;100.00;102042.88;2094533;28;46723;-66
2024/01/26 01:38:54;;;;;;;;;11.67;10.67;;;;;16.91;100.00;102049.22;2095268;28;46586;-65
2024/01/26 01:39:55;;;;;;;;;11.33;11.33;;;;;16.88;100.00;102041.22;2094695;28;46557;-66
2024/01/26 01:40:55;;;;;;;;;11.33;11.33;;;;;16.93;100.00;102047.38;2094502;28;46207;-67
2024/01/26 01:41:55;;;;;;;;;13.00;13.00;;;;;16.91;100.00;102042.97;2095455;28;45383;-66
2024/01/26 01:42:56;;;;;;;;;11.33;10.33;;;;;16.89;100.00;102047.47;2094569;28;46705;-66
2024/01/26 01:43:56;;;;;;;;;13.00;10.33;;;;;16.90;100.00;102051.94;2094908;28;46632;-66
2024/01/26 01:44:57;;;;;;;;;12.67;12.67;;;;;16.86;100.00;102045.75;2095087;28;46677;-66
2024/01/26 01:45:58;;;;;;;;;15.33;13.00;;;;;16.84;100.00;102049.41;2094363;28;46532;-66
2024/01/26 01:46:58;;;;;;;;;12.00;12.00;;;;;16.86;100.00;102053.78;2095619;28;45603;-66
2024/01/26 01:47:58;;;;;;;;;12.00;10.33;;;;;16.85;100.00;102048.47;2096350;28;46732;-66
2024/01/26 01:48:59;;;;;;;;;12.00;11.00;;;;;16.85;100.00;102046.69;2096726;28;46171;-69
2024/01/26 01:49:59;;;;;;;;;11.67;9.33;;;;;16.87;100.00;102043.94;2096419;28;46259;-67
2024/01/26 01:51:00;;;;;;;;;12.00;12.00;;;;;16.89;100.00;102042.97;2096788;28;46613;-66
2024/01/26 01:52:03;;;;;;;;;11.00;9.33;;;;;16.90;100.00;102047.47;2096771;28;46349;-68
2024/01/26 01:53:04;;;;;;;;;11.00;10.75;;;;;16.90;100.00;102047.47;2095868;28;45222;-67
2024/01/26 01:54:06;;;;;;;;;8.75;8.75;;;;;16.89;100.00;102045.66;2096211;28;45996;-66
2024/01/26 01:55:10;;;;;;;;;9.00;9.00;;;;;16.92;100.00;102048.28;2096098;28;45673;-66
2024/01/26 01:56:11;;;;;;;;;13.00;12.00;;;;;16.96;100.00;102044.59;2096693;28;46278;-66
2024/01/26 01:57:12;;;;;;;;;14.25;12.00;;;;;16.91;100.00;102046.53;2096137;28;45658;-66
2024/01/26 01:58:15;;;;;;;;;11.25;11.25;;;;;16.91;100.00;102059.06;2096568;28;46401;-66
2024/01/26 01:59:16;;;;;;;;;13.50;13.50;;;;;16.93;100.00;102055.41;2095938;28;45226;-65
2024/01/26 02:00:16;;;;;;;;;10.67;10.67;;;;;16.88;100.00;102062.69;2096039;28;46685;-66
2024/01/26 02:01:16;;;;;;;;;11.67;11.67;;;;;16.89;100.00;102068.91;2095849;28;46200;-66
2024/01/26 02:02:18;;;;;;;;;13.33;11.67;;;;;16.91;100.00;102057.25;2096403;28;46244;-66
2024/01/26 02:03:19;;;;;;;;;13.75;11.75;;;;;16.87;100.00;102050.19;2094755;28;46994;-66
2024/01/26 02:04:20;;;;;;;;;11.00;11.00;;;;;16.88;100.00;102049.28;2096483;28;47119;-65
2024/01/26 02:05:20;;;;;;;;;14.67;13.00;;;;;16.91;100.00;102046.53;2096220;28;46384;-65
2024/01/26 02:06:21;;;;;;;;;11.00;11.00;;;;;16.92;100.00;102039.38;2096022;28;46156;-65
2024/01/26 02:07:21;;;;;;;;;13.67;11.67;;;;;16.91;100.00;102049.22;2095937;28;46723;-66
2024/01/26 02:08:21;;;;;;;;;11.00;11.00;;;;;16.90;100.00;102035.84;2096247;28;45906;-66
2024/01/26 02:09:22;;;;;;;;;12.33;12.33;;;;;16.82;100.00;102029.81;2096556;28;46799;-66
2024/01/26 02:10:23;;;;;;;;;12.67;11.67;;;;;16.80;100.00;102040.56;2095156;28;46481;-66
2024/01/26 02:11:23;;;;;;;;;12.67;11.00;;;;;16.82;100.00;102048.56;2095893;28;46340;-66
2024/01/26 02:12:25;;;;;;;;;10.00;10.00;;;;;16.80;100.00;102045.06;2096822;28;46906;-66
2024/01/26 02:13:26;;;;;;;;;11.50;11.25;;;;;16.80;100.00;102037.88;2096194;28;46579;-66
2024/01/26 02:14:26;;;;;;;;;12.00;11.67;;;;;16.81;100.00;102034.28;2095552;28;46136;-65
2024/01/26 02:15:27;;;;;;;;;12.33;10.67;;;;;16.78;100.00;102031.69;2095809;28;46872;-66
2024/01/26 02:16:27;;;;;;;;;14.33;12.00;;;;;16.78;100.00;102031.69;2096338;28;46626;-66
2024/01/26 02:17:31;;;;;;;;;10.00;10.00;;;;;16.79;100.00;102022.72;2096101;28;46355;-66
2024/01/26 02:18:32;;;;;;;;;13.50;12.25;;;;;16.81;100.00;102036.09;2096504;28;45662;-67
2024/01/26 02:19:33;;;;;;;;;11.50;11.50;;;;;16.77;100.00;102029.94;2095578;28;46314;-67
2024/01/26 02:20:33;;;;;;;;;13.33;11.67;;;;;16.80;100.00;102032.53;2095908;28;46311;-67
2024/01/26 02:21:33;;;;;;;;;13.00;13.00;;;;;16.81;100.00;102038.78;2095498;28;46659;-66
2024/01/26 02:22:34;;;;;;;;;12.00;11.00;;;;;16.81;100.00;102034.28;2078166;28;46354;-66
2024/01/26 02:23:34;;;;;;;;;9.00;9.00;;;;;16.84;100.00;102038.69;2087090;28;45927;-65
2024/01/26 02:24:34;;;;;;;;;9.67;9.67;;;;;16.88;100.00;102032.31;2096243;28;46069;-65
2024/01/26 02:25:35;;;;;;;;;11.67;11.67;;;;;16.91;100.00;102032.25;2093660;28;46289;-65
2024/01/26 02:26:35;;;;;;;;;12.00;11.33;;;;;16.93;100.00;102041.13;2094882;28;46096;-66
2024/01/26 02:27:35;;;;;;;;;10.33;10.33;;;;;16.89;100.00;102029.56;2095994;28;46108;-66
2024/01/26 02:28:36;;;;;;;;;13.33;11.00;;;;;16.91;100.00;102027.75;2096254;28;47036;-65
2024/01/26 02:29:36;;;;;;;;;12.00;12.00;;;;;16.92;100.00;102032.19;2095510;28;46386;-66
2024/01/26 02:30:36;;;;;;;;;9.00;9.00;;;;;16.94;100.00;102018.75;2095932;28;46889;-65
2024/01/26 02:31:37;;;;;;;;;10.00;10.00;;;;;16.92;100.00;102026.84;2095998;28;46408;-64
2024/01/26 02:32:37;;;;;;;;;12.33;10.00;;;;;16.94;100.00;102029.47;2095845;28;45860;-65
2024/01/26 02:33:38;;;;;;;;;10.33;10.33;;;;;16.90;100.00;102028.69;2095230;28;46262;-65
2024/01/26 02:34:38;;;;;;;;;10.67;10.33;;;;;16.90;100.00;102023.31;2095168;28;46389;-65
2024/01/26 02:35:39;;;;;;;;;12.33;12.33;;;;;16.88;100.00;102021.56;2096333;28;46284;-65
2024/01/26 02:36:39;;;;;;;;;13.00;13.00;;;;;16.92;100.00;102021.47;2095487;28;46321;-66
2024/01/26 02:37:39;;;;;;;;;12.00;10.00;;;;;16.90;100.00;102025.13;2096176;28;46201;-65
2024/01/26 02:38:40;;;;;;;;;10.33;10.33;;;;;16.92;100.00;102017.91;2096094;28;46993;-66
2024/01/26 02:39:40;;;;;;;;;10.33;9.67;;;;;16.93;100.00;102014.31;2096273;28;46555;-66
2024/01/26 02:40:40;;;;;;;;;13.00;11.33;;;;;16.87;100.00;102015.34;2096029;28;46988;-66
2024/01/26 02:41:40;;;;;;;;;6.33;6.33;;;;;16.89;100.00;102020.66;2095123;28;46417;-66
2024/01/26 02:42:41;;;;;;;;;9.33;9.33;;;;;16.88;100.00;102029.63;2096548;28;46174;-65
2024/01/26 02:43:41;;;;;;;;;11.67;10.33;;;;;16.87;100.00;102028.75;2095993;28;46129;-66
2024/01/26 02:44:41;;;;;;;;;9.00;9.00;;;;;16.87;100.00;102030.53;2095952;28;46116;-66
2024/01/26 02:45:46;;;;;;;;;15.00;11.00;;;;;16.86;100.00;102026.09;2096334;28;46804;-66
2024/01/26 02:46:49;;;;;;;;;9.75;9.75;;;;;16.87;100.00;102019.81;2095520;28;46408;-66
2024/01/26 02:47:49;;;;;;;;;9.50;8.50;;;;;16.90;100.00;102023.31;2096061;28;45967;-66
2024/01/26 02:48:50;;;;;;;;;10.67;10.67;;;;;16.92;100.00;102026.84;2095880;28;46259;-66
2024/01/26 02:49:50;;;;;;;;;8.00;8.00;;;;;16.93;100.00;102017.88;2096240;28;46772;-66
2024/01/26 02:50:50;;;;;;;;;11.33;9.33;;;;;16.91;100.00;102025.09;2095983;28;46575;-65
2024/01/26 02:51:51;;;;;;;;;15.00;12.67;;;;;16.91;100.00;102016.16;2086668;28;46639;-65
2024/01/26 02:52:51;;;;;;;;;10.00;10.00;;;;;16.93;100.00;102020.56;2086714;28;46293;-66
2024/01/26 02:53:51;;;;;;;;;11.00;9.00;;;;;16.93;100.00;102020.56;2095487;28;47207;-67
2024/01/26 02:54:52;;;;;;;;;10.00;9.67;;;;;16.90;100.00;102028.69;2096763;28;45674;-66
2024/01/26 02:55:52;;;;;;;;;10.00;9.33;;;;;16.88;100.00;102016.22;2096465;28;46028;-67
2024/01/26 02:56:52;;;;;;;;;13.00;11.00;;;;;16.88;100.00;102010.84;2095862;28;46655;-66
2024/01/26 02:57:53;;;;;;;;;11.33;10.00;;;;;16.85;100.00;102011.81;2093386;28;45413;-67
2024/01/26 02:58:53;;;;;;;;;8.67;8.67;;;;;16.96;100.00;102009.72;2094559;28;46959;-67
2024/01/26 02:59:53;;;;;;;;;10.33;10.33;;;;;16.94;100.00;102002.66;2095502;28;46017;-65
2024/01/26 03:00:54;;;;;;;;;9.33;9.33;;;;;16.95;100.00;101999.06;2096463;28;46706;-66
2024/01/26 03:01:54;;;;;;;;;11.67;11.67;;;;;16.95;100.00;101994.56;2102504;27;46733;-66
2024/01/26 03:02:54;;;;;;;;;9.00;8.33;;;;;16.96;100.00;101995.44;2103462;28;46439;-67
2024/01/26 03:03:55;;;;;;;;;11.67;11.67;;;;;16.95;100.00;101996.38;2094613;28;46534;-67
2024/01/26 03:04:55;;;;;;;;;10.00;10.00;;;;;16.93;100.00;101996.41;2095343;28;46476;-66
2024/01/26 03:05:55;;;;;;;;;7.00;7.00;;;;;16.92;100.00;102000.03;2096205;28;46523;-66
2024/01/26 03:06:56;;;;;;;;;11.33;10.00;;;;;17.00;100.00;102000.66;2096518;28;45849;-66
2024/01/26 03:07:56;;;;;;;;;11.33;11.33;;;;;17.02;100.00;102000.63;2095532;28;46971;-66
2024/01/26 03:08:57;;;;;;;;;9.67;9.67;;;;;17.03;100.00;101992.56;2106666;27;46539;-66
2024/01/26 03:09:57;;;;;;;;;8.00;6.33;;;;;17.01;100.00;101990.81;2107117;27;46718;-66
2024/01/26 03:10:57;;;;;;;;;9.33;9.33;;;;;17.03;100.00;101997.94;2095588;28;46255;-66
2024/01/26 03:11:58;;;;;;;;;9.00;9.00;;;;;17.07;100.00;101993.34;2096109;28;46433;-66
2024/01/26 03:12:58;;;;;;;;;8.33;8.33;;;;;17.03;100.00;101997.03;2096164;28;46437;-66
2024/01/26 03:13:58;;;;;;;;;12.67;9.33;;;;;17.02;100.00;101996.16;2095085;28;45809;-66
2024/01/26 03:14:59;;;;;;;;;11.00;9.33;;;;;17.02;100.00;101989.91;2096137;28;46161;-66
2024/01/26 03:16:00;;;;;;;;;9.50;9.25;;;;;17.00;100.00;101989.94;2096069;28;46717;-64
2024/01/26 03:17:00;;;;;;;;;9.67;9.67;;;;;16.93;100.00;102000.91;2096243;28;45142;-65
2024/01/26 03:18:00;;;;;;;;;7.33;7.33;;;;;16.97;100.00;101997.19;2095513;28;47175;-66
2024/01/26 03:19:01;;;;;;;;;10.67;10.33;;;;;16.97;100.00;101989.16;2094058;28;46634;-65
2024/01/26 03:20:02;;;;;;;;;9.33;9.33;;;;;16.99;100.00;101998.91;2094761;28;46544;-65
2024/01/26 03:21:02;;;;;;;;;8.25;7.75;;;;;16.99;100.00;102003.41;2096119;28;46792;-66
2024/01/26 03:22:03;;;;;;;;;10.33;10.33;;;;;16.96;100.00;102000.81;2095614;28;46577;-66
2024/01/26 03:23:03;;;;;;;;;9.00;9.00;;;;;16.97;100.00;101986.47;2095238;28;46324;-65
2024/01/26 03:24:04;;;;;;;;;9.00;8.67;;;;;16.98;100.00;101993.59;2096200;28;46547;-65
2024/01/26 03:25:05;;;;;;;;;13.67;11.00;;;;;16.99;100.00;101995.34;2095255;28;46171;-65
2024/01/26 03:26:05;;;;;;;;;10.00;10.00;;;;;16.95;100.00;101991.88;2086483;28;46665;-65
2024/01/26 03:27:05;;;;;;;;;11.00;11.00;;;;;16.98;100.00;101988.22;2086010;28;46657;-66
2024/01/26 03:28:06;;;;;;;;;11.00;11.00;;;;;17.01;100.00;101993.50;2094692;28;46662;-65
2024/01/26 03:29:07;;;;;;;;;11.50;9.50;;;;;17.01;100.00;102002.41;2095164;28;46393;-65
2024/01/26 03:30:08;;;;;;;;;11.33;9.67;;;;;17.01;100.00;101999.75;2095361;28;45308;-66
2024/01/26 03:31:08;;;;;;;;;10.25;10.25;;;;;17.01;100.00;101993.50;2093905;28;46918;-66
2024/01/26 03:32:09;;;;;;;;;10.67;10.33;;;;;17.03;100.00;101986.31;2094562;28;46866;-65
2024/01/26 03:33:09;;;;;;;;;13.00;11.67;;;;;17.01;100.00;101990.81;2095768;28;46252;-66
2024/01/26 03:34:09;;;;;;;;;9.67;9.67;;;;;16.99;100.00;101992.66;2095559;28;46185;-65
2024/01/26 03:35:10;;;;;;;;;11.33;11.33;;;;;16.99;100.00;101987.31;2095351;28;46767;-65
2024/01/26 03:36:12;;;;;;;;;11.67;11.67;;;;;17.01;100.00;101999.75;2086920;28;45832;-66
2024/01/26 03:37:12;;;;;;;;;9.75;9.25;;;;;17.02;100.00;101993.47;2094835;28;46522;-66
2024/01/26 03:38:12;;;;;;;;;11.00;11.00;;;;;17.01;100.00;101996.19;2096043;28;46263;-65
2024/01/26 03:39:13;;;;;;;;;10.33;8.67;;;;;17.03;100.00;101989.88;2095661;28;46842;-65
2024/01/26 03:40:13;;;;;;;;;9.00;9.00;;;;;17.04;100.00;101990.75;2094990;28;47095;-66
2024/01/26 03:41:14;;;;;;;;;11.67;10.00;;;;;17.03;100.00;101986.31;2095355;28;46402;-65
2024/01/26 03:42:14;;;;;;;;;10.00;10.00;;;;;17.02;100.00;101993.47;2095668;28;46762;-66
2024/01/26 03:43:14;;;;;;;;;10.00;8.33;;;;;17.05;100.00;101995.19;2095179;28;46659;-65
2024/01/26 03:44:15;;;;;;;;;10.00;10.00;;;;;17.04;100.00;102005.03;2095359;28;46284;-66
2024/01/26 03:45:15;;;;;;;;;10.00;10.00;;;;;17.06;100.00;101997.84;2094810;28;45774;-66
2024/01/26 03:46:15;;;;;;;;;10.00;10.00;;;;;17.09;100.00;102004.03;2095780;28;46850;-66
2024/01/26 03:47:16;;;;;;;;;10.00;9.67;;;;;17.08;100.00;101989.75;2093821;28;46943;-66
2024/01/26 03:48:16;;;;;;;;;9.00;8.67;;;;;17.10;100.00;101995.94;2095408;28;45990;-66
2024/01/26 03:49:16;;;;;;;;;14.00;12.67;;;;;17.10;100.00;101993.25;2096251;28;46079;-65
2024/01/26 03:50:17;;;;;;;;;12.00;11.67;;;;;17.09;100.00;101983.44;2095800;28;46489;-66
2024/01/26 03:51:17;;;;;;;;;11.33;9.33;;;;;17.09;100.00;101980.75;2095769;28;46751;-66
2024/01/26 03:52:18;;;;;;;;;11.33;11.00;;;;;17.06;100.00;101975.50;2095598;28;46863;-66
2024/01/26 03:53:18;;;;;;;;;10.00;10.00;;;;;17.06;100.00;101976.38;2095706;28;46262;-66
2024/01/26 03:54:18;;;;;;;;;9.67;9.67;;;;;17.06;100.00;101984.41;2096023;28;46518;-66
2024/01/26 03:55:19;;;;;;;;;9.67;9.67;;;;;17.06;100.00;101976.38;2094324;28;46386;-66
2024/01/26 03:56:19;;;;;;;;;9.67;8.67;;;;;17.08;100.00;101972.75;2094014;28;46379;-66
2024/01/26 03:57:19;;;;;;;;;11.67;10.67;;;;;17.08;100.00;101978.13;2095753;28;46640;-66
2024/01/26 03:58:20;;;;;;;;;9.33;8.33;;;;;17.04;100.00;101977.34;2095600;28;46380;-66
2024/01/26 03:59:20;;;;;;;;;9.00;9.00;;;;;17.01;100.00;101977.41;2096139;28;46172;-66
2024/01/26 04:00:21;;;;;;;;;12.67;10.00;;;;;17.03;100.00;101968.41;2095515;28;46720;-66
2024/01/26 04:01:21;;;;;;;;;11.00;11.00;;;;;17.03;100.00;101975.59;2095463;28;46205;-65
2024/01/26 04:02:21;;;;;;;;;13.00;12.67;;;;;17.04;100.00;101977.34;2093237;28;46442;-65
2024/01/26 04:03:22;;;;;;;;;9.33;9.33;;;;;17.03;100.00;101984.50;2094817;28;45352;-66
2024/01/26 04:04:23;;;;;;;;;11.67;10.33;;;;;17.02;100.00;101985.44;2095636;28;46619;-66
2024/01/26 04:05:23;;;;;;;;;11.67;11.67;;;;;17.00;100.00;101986.38;2095555;28;46731;-66
2024/01/26 04:06:23;;;;;;;;;12.00;10.67;;;;;16.99;100.00;101990.00;2095854;28;46276;-65
2024/01/26 04:07:24;;;;;;;;;9.33;9.33;;;;;16.91;100.00;101987.53;2095522;28;46139;-67
2024/01/26 04:08:24;;;;;;;;;10.00;9.33;;;;;16.93;100.00;101982.13;2095309;28;46421;-66
2024/01/26 04:09:24;;;;;;;;;11.00;11.00;;;;;16.91;100.00;101987.53;2095800;28;46321;-67
2024/01/26 04:10:24;;;;;;;;;10.00;10.00;;;;;16.85;100.00;101985.00;2095870;28;46296;-67
2024/01/26 04:11:25;;;;;;;;;12.00;9.67;;;;;16.89;100.00;101984.00;2096038;28;47956;-67
2024/01/26 04:12:25;;;;;;;;;12.00;11.00;;;;;16.89;100.00;101977.75;2096023;28;46388;-66
2024/01/26 04:13:26;;;;;;;;;9.33;9.33;;;;;16.91;100.00;101978.63;2095481;28;45478;-67
2024/01/26 04:14:26;;;;;;;;;8.67;8.00;;;;;16.89;100.00;101973.28;2095648;28;46411;-66
2024/01/26 04:15:26;;;;;;;;;9.67;9.67;;;;;16.92;100.00;101981.25;2095816;28;46145;-66
2024/01/26 04:16:27;;;;;;;;;9.00;8.67;;;;;16.94;100.00;101981.22;2095734;28;46381;-66
2024/01/26 04:17:27;;;;;;;;;10.67;10.67;;;;;16.93;100.00;101984.81;2096259;28;47086;-67
2024/01/26 04:18:27;;;;;;;;;11.00;10.00;;;;;16.92;100.00;101973.22;2093868;28;46571;-66
2024/01/26 04:19:28;;;;;;;;;13.67;12.00;;;;;16.95;100.00;101967.75;2094681;28;46298;-66
2024/01/26 04:20:28;;;;;;;;;10.33;10.33;;;;;16.98;100.00;101981.06;2095376;28;46579;-65
2024/01/26 04:21:28;;;;;;;;;11.00;11.00;;;;;16.94;100.00;101971.34;2095367;28;46169;-65
2024/01/26 04:22:29;;;;;;;;;10.00;9.00;;;;;16.95;100.00;101983.84;2096158;28;45809;-66
2024/01/26 04:23:29;;;;;;;;;13.00;9.00;;;;;16.96;100.00;101979.34;2095378;28;46435;-67
2024/01/26 04:24:29;;;;;;;;;12.00;9.67;;;;;16.91;100.00;101974.13;2095589;28;46379;-65
2024/01/26 04:25:30;;;;;;;;;11.67;10.00;;;;;16.92;100.00;101981.25;2095492;28;46374;-65
2024/01/26 04:26:30;;;;;;;;;10.00;10.00;;;;;16.88;100.00;101978.69;2095275;28;46541;-67
2024/01/26 04:27:30;;;;;;;;;9.33;9.33;;;;;16.88;100.00;101984.91;2095463;28;46200;-66
2024/01/26 04:28:31;;;;;;;;;8.67;8.33;;;;;16.91;100.00;101981.28;2095781;28;47290;-66
2024/01/26 04:29:31;;;;;;;;;8.00;8.00;;;;;16.90;100.00;101984.91;2095693;28;46260;-67
2024/01/26 04:30:31;;;;;;;;;9.00;8.00;;;;;16.92;100.00;101981.25;2095782;28;45223;-66
2024/01/26 04:31:32;;;;;;;;;10.33;10.33;;;;;16.93;100.00;101984.81;2095313;28;46089;-67
2024/01/26 04:32:32;;;;;;;;;10.00;9.67;;;;;16.93;100.00;101979.44;2095608;28;45838;-67
2024/01/26 04:33:32;;;;;;;;;7.00;6.33;;;;;16.91;100.00;101981.28;2095510;28;46159;-66
2024/01/26 04:34:37;;;;;;;;;11.67;11.33;;;;;16.89;100.00;101975.06;2095436;28;46874;-67